East Randolph, New York
Current Conditions -  °F | °C
As of 3:55 PM on Saturday 25 Oct 2014 (Local Time) from KJHW Reporting Station
Overcast Overcast  
Wind Chill: 57°   Ceiling: 2900
Heat Index: 57°   Visibility: 10mi
Dew Point: 48°   Wind: 17mph
Humidity: 72%   Direction: 270°W
Pressure: 29.7"   Gusts: 26mph
Location:  42.17°N, 78.95°W
Report Text: KJHW 251955Z AUTO 27015G23KT 10SM FEW022 BKN029 OVC038 14/09 A2970 RMK AO1
Loading
Personal Weather Stations






























Interactive Weather Map
Tropical Storm Tracking
New forecast layout! Learn more

10-Day Weather Forecast

Advertisements
Track Severe Weather on mobile